createdAt,value
2018-01-20T00:00:19.215Z,95.90
2018-01-20T00:02:46.659Z,96.00
2018-01-20T00:05:14.085Z,96.00
2018-01-20T00:07:42.273Z,95.80
2018-01-20T00:10:21.542Z,95.80
2018-01-20T00:12:49.045Z,95.50
2018-01-20T00:15:17.236Z,95.30
2018-01-20T00:17:44.660Z,95.30
2018-01-20T00:20:12.104Z,95.50
2018-01-20T00:22:39.535Z,95.00
2018-01-20T00:25:06.964Z,95.10
2018-01-20T00:27:41.868Z,95.10
2018-01-20T00:30:09.307Z,95.30
2018-01-20T00:32:36.769Z,95.40
2018-01-20T00:35:04.199Z,95.40
2018-01-20T00:37:31.631Z,95.20
2018-01-20T00:39:59.066Z,95.30
2018-01-20T00:42:28.177Z,94.80
2018-01-20T00:44:55.604Z,94.80
2018-01-20T00:47:23.028Z,94.90
2018-01-20T00:49:50.480Z,95.30
2018-01-20T00:52:17.892Z,95.80
2018-01-20T00:54:46.099Z,95.50
2018-01-20T00:57:13.538Z,95.50
2018-01-20T00:59:41.733Z,95.80
2018-01-20T01:02:09.161Z,95.80
2018-01-20T01:04:37.373Z,96.10
2018-01-20T01:07:04.812Z,96.00
2018-01-20T01:09:32.246Z,96.60
2018-01-20T01:12:00.450Z,96.30
2018-01-20T01:14:27.891Z,96.20
2018-01-20T01:16:56.077Z,96.60
2018-01-20T01:19:23.529Z,96.60
2018-01-20T01:21:50.961Z,97.00
2018-01-20T01:24:18.401Z,97.40
2018-01-20T01:26:45.828Z,97.50
2018-01-20T01:29:13.261Z,96.70
2018-01-20T01:31:40.687Z,97.10
2018-01-20T01:34:08.120Z,97.30
2018-01-20T01:36:35.556Z,97.10
2018-01-20T01:39:02.992Z,97.20
2018-01-20T01:41:30.420Z,96.80
2018-01-20T01:43:58.661Z,98.20
2018-01-20T01:46:26.067Z,98.10
2018-01-20T01:48:54.284Z,98.00
2018-01-20T01:51:21.732Z,98.00
2018-01-20T01:53:49.160Z,97.70
2018-01-20T01:56:16.592Z,97.50
2018-01-20T01:58:44.016Z,97.40
2018-01-20T02:01:11.459Z,97.50
2018-01-20T02:03:38.892Z,98.00
2018-01-20T02:06:06.321Z,97.50
2018-01-20T02:08:33.743Z,97.20
2018-01-20T02:11:01.178Z,97.50
2018-01-20T02:13:28.615Z,97.90
2018-01-20T02:15:56.837Z,97.70
2018-01-20T02:18:24.257Z,97.80
2018-01-20T02:20:51.689Z,97.90
2018-01-20T02:23:19.885Z,98.00
2018-01-20T02:25:48.092Z,98.20
2018-01-20T02:28:15.568Z,98.20
2018-01-20T02:30:43.004Z,98.00
2018-01-20T02:33:10.494Z,97.90
2018-01-20T02:35:37.924Z,97.40
2018-01-20T02:38:05.373Z,97.70
2018-01-20T02:40:32.813Z,98.50
2018-01-20T02:43:00.249Z,98.40
2018-01-20T02:45:27.772Z,98.00
2018-01-20T02:47:55.207Z,97.70
2018-01-20T02:50:22.633Z,97.40
2018-01-20T02:52:50.840Z,97.00
2018-01-20T02:55:18.272Z,97.00
2018-01-20T02:57:45.700Z,97.00
2018-01-20T03:00:13.140Z,97.30
2018-01-20T03:02:40.561Z,97.80
2018-01-20T03:05:07.992Z,97.40
2018-01-20T03:07:36.197Z,96.90
2018-01-20T03:10:03.625Z,96.80
2018-01-20T03:12:31.820Z,97.20
2018-01-20T03:14:59.240Z,97.20
2018-01-20T03:17:28.374Z,96.90
2018-01-20T03:19:55.811Z,96.90
2018-01-20T03:22:24.013Z,97.30
2018-01-20T03:24:51.453Z,97.30
2018-01-20T03:27:18.894Z,97.00
2018-01-20T03:29:46.308Z,97.00
2018-01-20T03:32:13.768Z,97.30
2018-01-20T03:34:41.184Z,97.00
2018-01-20T03:37:08.644Z,96.40
2018-01-20T03:39:36.411Z,96.70
2018-01-20T03:42:03.829Z,96.50
2018-01-20T03:44:31.249Z,96.20
2018-01-20T03:46:58.741Z,96.70
2018-01-20T03:49:26.181Z,96.20
2018-01-20T03:51:53.616Z,96.60
2018-01-20T03:54:21.036Z,96.50
2018-01-20T03:56:49.246Z,96.60
2018-01-20T03:59:16.678Z,96.60
2018-01-20T04:01:44.874Z,97.40
2018-01-20T04:04:12.317Z,97.40
2018-01-20T04:06:39.826Z,97.60
2018-01-20T04:09:07.245Z,97.80
2018-01-20T04:11:34.677Z,97.10
2018-01-20T04:14:02.880Z,95.90
2018-01-20T04:16:30.314Z,95.90
2018-01-20T04:18:58.496Z,96.00
2018-01-20T04:21:25.928Z,95.90
2018-01-20T04:23:53.344Z,96.50
2018-01-20T04:26:20.852Z,96.40
2018-01-20T04:28:49.093Z,96.50
2018-01-20T04:31:16.520Z,96.50
2018-01-20T04:33:43.984Z,96.90
2018-01-20T04:36:11.470Z,96.80
2018-01-20T04:38:38.891Z,96.70
2018-01-20T04:41:06.351Z,97.00
2018-01-20T04:43:33.788Z,97.10
2018-01-20T04:46:01.996Z,96.70
2018-01-20T04:48:29.425Z,96.70
2018-01-20T04:50:56.876Z,97.20
2018-01-20T04:53:24.303Z,97.00
2018-01-20T04:55:51.770Z,96.90
2018-01-20T04:58:19.211Z,97.50
2018-01-20T05:00:46.676Z,97.00
2018-01-20T05:03:14.100Z,96.90
2018-01-20T05:05:41.524Z,96.80
2018-01-20T05:08:08.961Z,96.70
2018-01-20T05:10:37.182Z,97.40
2018-01-20T05:13:04.622Z,97.40
2018-01-20T05:15:32.086Z,97.30
2018-01-20T05:17:59.538Z,96.90
2018-01-20T05:20:27.886Z,96.50
2018-01-20T05:22:55.315Z,96.90
2018-01-20T05:25:22.757Z,96.20
2018-01-20T05:27:50.180Z,96.10
2018-01-20T05:30:17.605Z,96.90
2018-01-20T05:32:45.049Z,96.90
2018-01-20T05:35:12.534Z,96.50
2018-01-20T05:37:40.574Z,96.50
2018-01-20T05:40:07.993Z,96.70
2018-01-20T05:42:35.418Z,96.40
2018-01-20T05:45:03.632Z,97.20
2018-01-20T05:47:31.068Z,97.20
2018-01-20T05:49:59.262Z,97.80
2018-01-20T05:52:26.693Z,97.80
2018-01-20T05:54:54.876Z,97.10
2018-01-20T05:57:22.328Z,97.10
2018-01-20T05:59:50.517Z,97.00
2018-01-20T06:02:17.949Z,97.00
2018-01-20T06:04:46.137Z,97.60
2018-01-20T06:07:13.568Z,97.60
2018-01-20T06:09:41.675Z,97.70
2018-01-20T06:12:09.210Z,98.00
2018-01-20T06:14:37.429Z,98.00
2018-01-20T06:17:04.844Z,97.90
2018-01-20T06:19:33.070Z,98.00
2018-01-20T06:22:00.496Z,98.00
2018-01-20T06:24:28.106Z,97.60
2018-01-20T06:26:55.528Z,97.10
2018-01-20T06:29:22.964Z,96.90
2018-01-20T06:31:50.409Z,96.90
2018-01-20T06:34:18.612Z,97.00
2018-01-20T06:36:46.043Z,97.00
2018-01-20T06:39:14.241Z,96.90
2018-01-20T06:41:41.684Z,96.90
2018-01-20T06:44:10.505Z,97.40
2018-01-20T06:46:37.943Z,97.40
2018-01-20T06:49:06.149Z,96.90
2018-01-20T06:51:33.579Z,96.90
2018-01-20T06:54:01.030Z,96.70
2018-01-20T06:56:28.465Z,96.50
2018-01-20T06:58:56.660Z,96.30
2018-01-20T07:01:24.088Z,96.30
2018-01-20T07:03:51.521Z,96.10
2018-01-20T07:06:18.953Z,96.30
2018-01-20T07:08:46.426Z,96.40
2018-01-20T07:11:13.853Z,96.40
2018-01-20T07:13:41.291Z,96.10
2018-01-20T07:16:09.492Z,95.60
2018-01-20T07:18:36.920Z,95.60
2018-01-20T07:21:05.117Z,96.50
2018-01-20T07:23:32.548Z,96.50
2018-01-20T07:26:00.744Z,96.20
2018-01-20T07:28:28.251Z,96.20
2018-01-20T07:30:56.398Z,96.40
2018-01-20T07:33:23.845Z,96.40
2018-01-20T07:35:51.276Z,96.50
2018-01-20T07:38:19.641Z,96.40
2018-01-20T07:40:47.057Z,96.30
2018-01-20T07:43:14.517Z,95.90
2018-01-20T07:45:41.947Z,96.20
2018-01-20T07:48:09.378Z,96.00
2018-01-20T07:50:37.568Z,95.30
2018-01-20T07:53:05.047Z,95.30
2018-01-20T07:55:32.448Z,95.20
2018-01-20T07:57:59.881Z,95.60
2018-01-20T08:00:28.132Z,95.10
2018-01-20T08:02:55.568Z,95.40
2018-01-20T08:05:23.775Z,94.90
2018-01-20T08:07:51.216Z,94.90
2018-01-20T08:10:18.655Z,95.00
2018-01-20T08:12:46.854Z,95.30
2018-01-20T08:15:14.302Z,95.30
2018-01-20T08:17:41.740Z,94.90
2018-01-20T08:20:09.940Z,95.10
2018-01-20T08:22:37.368Z,95.00
2018-01-20T08:25:05.566Z,94.60
2018-01-20T08:27:33.776Z,94.70
2018-01-20T08:30:01.210Z,94.70
2018-01-20T08:32:28.637Z,95.10
2018-01-20T08:34:56.857Z,94.90
2018-01-20T08:37:24.289Z,94.80
2018-01-20T08:39:51.742Z,94.70
2018-01-20T08:42:19.932Z,93.90
2018-01-20T08:44:47.373Z,93.90
2018-01-20T08:47:15.577Z,93.30
2018-01-20T08:49:43.013Z,93.30
2018-01-20T08:52:11.213Z,93.70
2018-01-20T08:54:38.628Z,93.70
2018-01-20T08:57:06.861Z,93.10
2018-01-20T08:59:34.353Z,93.10
2018-01-20T09:02:01.821Z,92.90
2018-01-20T09:04:30.032Z,93.50
2018-01-20T09:06:57.485Z,93.40
2018-01-20T09:09:24.921Z,93.20
2018-01-20T09:11:53.129Z,93.10
2018-01-20T09:14:20.581Z,93.10
2018-01-20T09:16:47.992Z,92.70
2018-01-20T09:19:16.207Z,92.70
2018-01-20T09:21:44.424Z,92.30
2018-01-20T09:24:11.908Z,92.30
2018-01-20T09:26:39.290Z,92.00
2018-01-20T09:29:06.740Z,91.90
2018-01-20T09:31:34.221Z,91.90
2018-01-20T09:34:01.662Z,91.80
2018-01-20T09:36:29.110Z,91.50
2018-01-20T09:38:57.309Z,90.80
2018-01-20T09:41:24.803Z,90.80
2018-01-20T09:43:52.252Z,90.60
2018-01-20T09:46:19.682Z,91.50
2018-01-20T09:48:47.120Z,91.80
2018-01-20T09:51:14.582Z,91.70
2018-01-20T09:53:42.012Z,91.40
2018-01-20T09:56:09.443Z,91.30
2018-01-20T09:58:36.901Z,91.20
2018-01-20T10:01:04.332Z,90.00
2018-01-20T10:03:31.770Z,88.10
2018-01-20T10:05:59.217Z,87.50
2018-01-20T10:08:26.673Z,88.50
2018-01-20T10:10:54.909Z,90.50
2018-01-20T10:13:22.340Z,90.40
2018-01-20T10:15:49.770Z,90.70
2018-01-20T10:18:17.205Z,90.80
2018-01-20T10:20:45.400Z,90.80
2018-01-20T10:23:12.833Z,90.80
2018-01-20T10:25:41.099Z,90.20
2018-01-20T10:28:08.458Z,90.20
2018-01-20T10:30:35.910Z,89.40
2018-01-20T10:33:03.347Z,90.00
2018-01-20T10:35:30.777Z,90.10
2018-01-20T10:37:58.221Z,88.20
2018-01-20T10:40:25.661Z,88.20
2018-01-20T10:42:53.874Z,87.70
2018-01-20T10:45:21.320Z,87.60
2018-01-20T10:47:48.776Z,86.50
2018-01-20T10:50:16.977Z,86.10
2018-01-20T10:52:44.423Z,86.00
2018-01-20T10:55:11.858Z,84.80
2018-01-20T10:57:39.295Z,83.90
2018-01-20T11:00:07.539Z,84.40
2018-01-20T11:02:36.666Z,84.30
2018-01-20T11:05:04.097Z,87.20
2018-01-20T11:07:31.573Z,85.90
2018-01-20T11:09:59.001Z,85.30
2018-01-20T11:12:26.541Z,86.70
2018-01-20T11:14:53.998Z,85.60
2018-01-20T11:17:21.420Z,85.70
2018-01-20T11:19:49.641Z,84.60
2018-01-20T11:22:17.101Z,84.60
2018-01-20T11:24:44.560Z,85.40
2018-01-20T11:27:12.000Z,86.80
2018-01-20T11:29:39.472Z,87.60
2018-01-20T11:32:06.892Z,88.00
2018-01-20T11:34:35.094Z,86.80
2018-01-20T11:37:02.522Z,86.80
2018-01-20T11:39:30.725Z,88.10
2018-01-20T11:41:58.195Z,88.90
2018-01-20T11:44:25.617Z,88.90
2018-01-20T11:46:53.064Z,87.80
2018-01-20T11:49:21.273Z,86.20
2018-01-20T11:51:48.725Z,87.00
2018-01-20T11:54:16.153Z,86.50
2018-01-20T11:56:44.385Z,89.00
2018-01-20T11:59:11.809Z,89.00
2018-01-20T12:01:39.245Z,88.60
2018-01-20T12:04:07.470Z,88.20
2018-01-20T12:06:34.907Z,88.10
2018-01-20T12:09:02.329Z,87.80
2018-01-20T12:11:30.552Z,86.00
2018-01-20T12:13:57.994Z,86.00
2018-01-20T12:16:25.460Z,87.70
2018-01-20T12:18:52.897Z,87.20
2018-01-20T12:21:20.332Z,87.10
2018-01-20T12:23:48.534Z,85.90
2018-01-20T12:26:16.040Z,85.80
2018-01-20T12:28:43.469Z,89.10
2018-01-20T12:31:10.918Z,89.10
2018-01-20T12:33:38.341Z,87.70
2018-01-20T12:36:06.550Z,87.40
2018-01-20T12:38:33.974Z,87.30
2018-01-20T12:41:02.193Z,88.10
2018-01-20T12:43:29.616Z,88.00
2018-01-20T12:45:57.825Z,89.30
2018-01-20T12:48:25.267Z,89.10
2018-01-20T12:50:52.697Z,88.90
2018-01-20T12:53:20.901Z,88.60
2018-01-20T12:55:48.339Z,88.40
2018-01-20T12:58:16.542Z,89.20
2018-01-20T13:00:43.976Z,89.20
2018-01-20T13:03:12.171Z,89.40
2018-01-20T13:05:39.613Z,89.40
2018-01-20T13:08:07.048Z,89.70
2018-01-20T13:10:35.249Z,88.10
2018-01-20T13:13:02.682Z,87.90
2018-01-20T13:15:30.113Z,89.70
2018-01-20T13:17:57.541Z,90.00
2018-01-20T13:20:24.980Z,89.90
2018-01-20T13:22:52.418Z,89.70
2018-01-20T13:25:20.617Z,90.30
2018-01-20T13:27:48.060Z,90.20
2018-01-20T13:30:15.508Z,90.20
2018-01-20T13:32:42.945Z,90.20
2018-01-20T13:35:11.128Z,91.90
2018-01-20T13:37:39.331Z,91.60
2018-01-20T13:40:06.761Z,91.20
2018-01-20T13:42:34.197Z,91.30
2018-01-20T13:45:02.466Z,91.40
2018-01-20T13:47:29.870Z,91.40
2018-01-20T13:49:58.056Z,91.80
2018-01-20T13:52:25.491Z,91.70
2018-01-20T13:54:53.690Z,91.90
2018-01-20T13:57:21.121Z,91.90
2018-01-20T13:59:49.321Z,92.60
2018-01-20T14:02:16.771Z,92.60
2018-01-20T14:04:44.979Z,92.70
2018-01-20T14:07:12.434Z,92.70
2018-01-20T14:09:39.886Z,92.70
2018-01-20T14:12:07.313Z,92.90
2018-01-20T14:14:35.520Z,93.50
2018-01-20T14:17:02.976Z,93.50
2018-01-20T14:19:30.405Z,93.70
2018-01-20T14:21:58.606Z,93.90
2018-01-20T14:24:26.037Z,93.80
2018-01-20T14:26:54.245Z,94.00
2018-01-20T14:29:21.705Z,94.00
2018-01-20T14:31:49.141Z,94.60
2018-01-20T14:34:16.593Z,94.60
2018-01-20T14:36:44.034Z,94.70
2018-01-20T14:39:12.243Z,94.40
2018-01-20T14:41:39.668Z,94.40
2018-01-20T14:44:07.883Z,94.20
2018-01-20T14:46:35.315Z,94.10
2018-01-20T14:49:02.732Z,94.30
2018-01-20T14:51:30.164Z,93.80
2018-01-20T14:53:57.596Z,93.90
2018-01-20T14:56:25.037Z,94.10
2018-01-20T14:58:52.510Z,93.90
2018-01-20T15:01:20.706Z,93.70
2018-01-20T15:03:48.123Z,93.70
2018-01-20T15:06:16.336Z,93.90
2018-01-20T15:08:43.768Z,93.90
2018-01-20T15:11:11.192Z,93.60
2018-01-20T15:13:38.616Z,93.70
2018-01-20T15:16:06.044Z,93.90
2018-01-20T15:18:33.488Z,93.60
2018-01-20T15:21:00.914Z,93.30
2018-01-20T15:23:28.761Z,93.30
2018-01-20T15:25:56.192Z,93.30
2018-01-20T15:28:23.632Z,93.30
2018-01-20T15:30:51.064Z,93.60
2018-01-20T15:33:19.301Z,93.60
2018-01-20T15:35:46.712Z,93.60
2018-01-20T15:38:14.160Z,93.40
2018-01-20T15:40:42.378Z,93.70
2018-01-20T15:43:09.781Z,93.60
2018-01-20T15:45:37.248Z,93.40
2018-01-20T15:48:05.467Z,93.80
2018-01-20T15:50:32.878Z,93.80
2018-01-20T15:53:01.076Z,93.90
2018-01-20T15:55:28.773Z,93.90
2018-01-20T15:57:56.205Z,93.80
2018-01-20T16:00:23.636Z,93.70
2018-01-20T16:02:51.828Z,93.70
2018-01-20T16:05:19.248Z,93.70
2018-01-20T16:07:46.684Z,93.60
2018-01-20T16:10:14.118Z,93.60
2018-01-20T16:12:41.555Z,93.70
2018-01-20T16:15:08.976Z,93.70
2018-01-20T16:17:36.412Z,93.80
2018-01-20T16:20:03.836Z,93.80
2018-01-20T16:22:31.282Z,93.60
2018-01-20T16:24:59.475Z,94.10
2018-01-20T16:27:26.904Z,94.10
2018-01-20T16:29:55.096Z,94.10
2018-01-20T16:32:22.532Z,94.00
2018-01-20T16:34:50.733Z,94.40
2018-01-20T16:37:18.167Z,94.40
2018-01-20T16:39:46.374Z,94.60
2018-01-20T16:42:13.793Z,94.50
2018-01-20T16:44:42.001Z,94.30
2018-01-20T16:47:09.420Z,94.30
2018-01-20T16:49:37.621Z,94.30
2018-01-20T16:52:05.048Z,94.30
2018-01-20T16:54:33.253Z,94.90
2018-01-20T16:57:00.679Z,94.50
2018-01-20T16:59:28.830Z,94.60
2018-01-20T17:01:56.263Z,94.30
2018-01-20T17:04:23.696Z,94.50
2018-01-20T17:06:51.124Z,94.70
2018-01-20T17:09:19.375Z,95.00
2018-01-20T17:11:46.849Z,94.90
2018-01-20T17:14:14.277Z,94.80
2018-01-20T17:16:41.700Z,94.70
2018-01-20T17:19:09.174Z,94.70
2018-01-20T17:21:36.604Z,94.70
2018-01-20T17:24:04.812Z,94.70
2018-01-20T17:26:32.234Z,94.70
2018-01-20T17:29:00.424Z,94.70
2018-01-20T17:31:28.765Z,94.70
2018-01-20T17:33:56.204Z,94.80
2018-01-20T17:36:23.640Z,94.80
2018-01-20T17:38:51.060Z,94.80
2018-01-20T17:41:19.284Z,94.90
2018-01-20T17:43:46.712Z,94.90
2018-01-20T17:46:14.132Z,94.90
2018-01-20T17:48:41.564Z,94.80
2018-01-20T17:51:09.000Z,94.70
2018-01-20T17:53:36.466Z,94.70
2018-01-20T17:56:03.881Z,94.70
2018-01-20T17:58:32.097Z,94.90
2018-01-20T18:00:59.752Z,94.90
2018-01-20T18:03:27.157Z,94.80
2018-01-20T18:05:54.666Z,94.70
2018-01-20T18:08:22.092Z,94.70
2018-01-20T18:10:50.297Z,94.80
2018-01-20T18:13:17.747Z,94.80
2018-01-20T18:15:45.176Z,94.90
2018-01-20T18:18:12.608Z,94.90
2018-01-20T18:20:40.052Z,95.00
2018-01-20T18:23:07.509Z,94.90
2018-01-20T18:25:34.978Z,94.70
2018-01-20T18:28:02.398Z,94.80
2018-01-20T18:30:29.835Z,94.80
2018-01-20T18:32:57.279Z,94.80
2018-01-20T18:35:25.476Z,94.80
2018-01-20T18:37:52.920Z,94.80
2018-01-20T18:40:20.461Z,94.90
2018-01-20T18:42:48.691Z,95.10
2018-01-20T18:45:16.127Z,95.10
2018-01-20T18:47:43.552Z,95.10
2018-01-20T18:50:11.753Z,95.10
2018-01-20T18:52:39.172Z,95.10
2018-01-20T18:55:07.093Z,95.10
2018-01-20T18:57:34.525Z,95.10
2018-01-20T19:00:02.733Z,95.10
2018-01-20T19:02:30.153Z,95.10
2018-01-20T19:04:58.373Z,95.20
2018-01-20T19:07:25.803Z,95.20
2018-01-20T19:09:53.242Z,95.00
2018-01-20T19:12:21.432Z,95.10
2018-01-20T19:14:48.866Z,95.00
2018-01-20T19:17:17.053Z,95.20
2018-01-20T19:19:45.268Z,95.20
2018-01-20T19:22:12.720Z,95.20
2018-01-20T19:24:40.153Z,95.10
2018-01-20T19:27:08.349Z,95.30
2018-01-20T19:29:35.790Z,95.30
2018-01-20T19:32:03.219Z,95.20
2018-01-20T19:34:31.418Z,95.30
2018-01-20T19:36:58.852Z,95.20
2018-01-20T19:39:27.050Z,95.20
2018-01-20T19:41:54.475Z,95.20
2018-01-20T19:44:23.509Z,95.20
2018-01-20T19:46:50.955Z,95.20
2018-01-20T19:49:18.396Z,95.10
2018-01-20T19:51:46.609Z,95.10
2018-01-20T19:54:14.045Z,95.10
2018-01-20T19:56:42.236Z,95.10
2018-01-20T19:59:09.681Z,95.10
2018-01-20T20:01:37.110Z,95.10
2018-01-20T20:04:05.339Z,95.10
2018-01-20T20:06:32.796Z,95.10
2018-01-20T20:09:00.233Z,95.20
2018-01-20T20:11:27.674Z,95.30
2018-01-20T20:13:55.877Z,95.30
2018-01-20T20:16:23.304Z,95.30
2018-01-20T20:18:51.513Z,95.20
2018-01-20T20:21:18.969Z,95.20
2018-01-20T20:23:46.422Z,95.60
2018-01-20T20:26:13.836Z,95.50
2018-01-20T20:28:41.268Z,95.20
2018-01-20T20:31:08.722Z,95.30
2018-01-20T20:33:36.144Z,95.10
2018-01-20T20:36:03.590Z,95.20
2018-01-20T20:38:31.777Z,95.30
2018-01-20T20:40:59.213Z,95.30
2018-01-20T20:43:28.104Z,95.10
2018-01-20T20:45:56.308Z,95.30
2018-01-20T20:48:23.752Z,95.30
2018-01-20T20:50:51.179Z,95.50
2018-01-20T20:53:18.595Z,95.50
2018-01-20T20:55:46.044Z,95.30
2018-01-20T20:58:13.504Z,95.30
2018-01-20T21:00:40.924Z,95.30
2018-01-20T21:03:09.126Z,95.20
2018-01-20T21:05:37.105Z,95.20
2018-01-20T21:08:04.544Z,95.20
2018-01-20T21:10:31.976Z,95.10
2018-01-20T21:13:00.178Z,95.10
2018-01-20T21:15:27.612Z,95.10
2018-01-20T21:17:55.808Z,94.90
2018-01-20T21:20:23.237Z,94.90
2018-01-20T21:22:51.435Z,94.60
2018-01-20T21:25:18.867Z,94.60
2018-01-20T21:27:47.057Z,94.40
2018-01-20T21:30:15.257Z,94.60
2018-01-20T21:32:42.681Z,94.60
2018-01-20T21:35:10.905Z,94.60
2018-01-20T21:37:38.333Z,94.60
2018-01-20T21:40:05.791Z,94.30
2018-01-20T21:42:33.233Z,94.50
2018-01-20T21:45:00.653Z,94.60
2018-01-20T21:47:28.080Z,94.90
2018-01-20T21:49:55.502Z,94.60
2018-01-20T21:52:23.708Z,95.10
2018-01-20T21:54:51.141Z,95.00
2018-01-20T21:57:19.371Z,95.00
2018-01-20T21:59:46.804Z,94.90
2018-01-20T22:02:14.227Z,95.00
2018-01-20T22:04:41.684Z,95.10
2018-01-20T22:07:09.121Z,95.20
2018-01-20T22:09:36.588Z,95.00
2018-01-20T22:12:04.785Z,95.30
2018-01-20T22:14:32.208Z,94.90
2018-01-20T22:16:59.636Z,94.80
2018-01-20T22:19:27.069Z,95.30
2018-01-20T22:21:54.550Z,94.80
2018-01-20T22:24:21.954Z,95.00
2018-01-20T22:26:50.172Z,95.10
2018-01-20T22:29:17.622Z,95.00
2018-01-20T22:31:45.055Z,95.00
2018-01-20T22:34:13.253Z,94.90
2018-01-20T22:36:40.705Z,94.90
2018-01-20T22:39:08.128Z,94.70
2018-01-20T22:41:36.329Z,95.00
2018-01-20T22:44:03.753Z,95.00
2018-01-20T22:46:32.025Z,95.00
2018-01-20T22:48:59.470Z,94.90
2018-01-20T22:51:26.901Z,95.10
2018-01-20T22:53:54.328Z,95.10
2018-01-20T22:56:21.773Z,95.00
2018-01-20T22:58:49.977Z,95.20
2018-01-20T23:01:22.989Z,95.20
2018-01-20T23:03:50.422Z,95.10
2018-01-20T23:06:17.898Z,95.40
2018-01-20T23:08:46.060Z,95.40
2018-01-20T23:11:13.493Z,95.30
2018-01-20T23:13:40.923Z,95.50
2018-01-20T23:16:08.355Z,95.80
2018-01-20T23:18:35.785Z,96.10
2018-01-20T23:21:03.217Z,95.80
2018-01-20T23:23:31.423Z,96.20
2018-01-20T23:25:58.865Z,96.20
2018-01-20T23:28:26.289Z,96.00
2018-01-20T23:30:54.814Z,96.20
2018-01-20T23:33:22.273Z,96.10
2018-01-20T23:35:50.455Z,95.80
2018-01-20T23:38:17.889Z,95.80
2018-01-20T23:40:45.324Z,95.80
2018-01-20T23:43:13.533Z,95.80
2018-01-20T23:45:40.957Z,95.70
2018-01-20T23:48:09.168Z,95.80
2018-01-20T23:50:36.605Z,95.80
2018-01-20T23:53:04.049Z,95.60
2018-01-20T23:55:32.272Z,95.50
2018-01-20T23:57:59.710Z,95.40
